»·PEaware :: AAL50 KDFW-EGLL

AAL50 :: KDFW-EGLL

FLIGHT INFORMATION

Flight Status: Arrived
Operator:
American Airlines
More flights by this operator :: More flights under this callsign
Pilot: Jamyson D. (13674)
Aircraft: Unknown
(B77W)
More flights by this aircraft type
Origin: KDFW Dallas-Ft Worth Intl
United States
Destination: EGLL Heathrow
United Kingdom
More flights between these airports :: More routes between these airports
Route: +AKUNA6 MLC RZC STL RBS GIJ FNT Q824 HOCKE Q905 SIKBO Q907 AGNOB Q907 MIILS N155A PORTI NATU LIMRI XETBO EVRIN UL607 NUMPO UP2 BEDEK
File this flight plan on PilotEdge
Remarks:
Altitude:
(Current/Filed)
33,000ft
Speed:
(Current/Filed)
488kts
Departed: 15-Mar-18 02:59 PM
Arrived: 15-Mar-18 11:50 PM
Distance/Time
Traveled:
4116nm/8:51
Distance/Time
To Go:
Arrived

Flight Plot

Page will automatically refresh every two minutes.

Flight plan parsing failed; only flown route is shown


Map Options




Map Legend


Flown Route
Filed Route
Departure Airport
Arrival Airport
Navaid (VOR, NDB)
Fix

Horizontal Profiles

Position Reports

Time Latitude Longitude Heading Altitude Ground
Speed
15-Mar-18 14:57 34.317102 -96.221107 29 32879ft 514kts
15-Mar-18 14:58 34.435294 -96.124356 28 32879ft 514kts
15-Mar-18 14:59 34.553692 -96.026858 29 32878ft 513kts
15-Mar-18 15:00 34.671494 -95.929707 29 32874ft 511kts
15-Mar-18 15:01 34.788988 -95.831997 29 32870ft 509kts
15-Mar-18 15:02 34.900990 -95.725568 38 32870ft 516kts
15-Mar-18 15:03 35.003165 -95.603114 39 32869ft 515kts
15-Mar-18 15:04 35.106321 -95.481674 39 32867ft 514kts
15-Mar-18 15:05 35.209561 -95.361332 39 32867ft 513kts
15-Mar-18 15:06 35.312693 -95.240082 39 32867ft 513kts
15-Mar-18 15:07 35.405099 -95.130999 39 32866ft 512kts
15-Mar-18 15:08 35.507513 -95.009667 39 32864ft 512kts
15-Mar-18 15:09 35.610025 -94.887766 39 32867ft 511kts
15-Mar-18 15:10 35.711974 -94.766071 39 32868ft 511kts
15-Mar-18 15:11 35.813798 -94.644070 39 32869ft 511kts
15-Mar-18 15:12 35.915687 -94.521526 39 32872ft 510kts
15-Mar-18 15:13 36.017121 -94.399085 39 32877ft 510kts
15-Mar-18 15:14 36.118685 -94.276306 39 32877ft 510kts
15-Mar-18 15:15 36.219605 -94.153240 39 32882ft 510kts
15-Mar-18 15:16 36.318254 -94.026731 42 32873ft 512kts
15-Mar-18 15:17 36.405647 -93.909774 41 32870ft 511kts
15-Mar-18 15:18 36.502530 -93.780790 41 32871ft 511kts
15-Mar-18 15:19 36.599621 -93.652129 41 32865ft 511kts
15-Mar-18 15:20 36.696464 -93.522646 41 32867ft 510kts
15-Mar-18 15:21 36.792811 -93.393229 41 32868ft 509kts
15-Mar-18 15:22 36.889290 -93.263121 41 32867ft 509kts
15-Mar-18 15:23 36.985193 -93.133264 41 32863ft 509kts
15-Mar-18 15:24 37.080896 -93.003160 41 32860ft 508kts
15-Mar-18 15:25 37.176668 -92.872436 41 32863ft 507kts
15-Mar-18 15:26 37.271901 -92.741927 41 32865ft 507kts
15-Mar-18 15:27 37.356409 -92.625670 41 32873ft 507kts
15-Mar-18 15:28 37.451491 -92.494366 41 32876ft 507kts
15-Mar-18 15:29 37.545967 -92.363367 41 32875ft 506kts
15-Mar-18 15:30 37.640578 -92.231649 41 32869ft 505kts
15-Mar-18 15:31 37.734670 -92.100110 41 32869ft 505kts
15-Mar-18 15:32 37.828433 -91.968496 41 32871ft 504kts
15-Mar-18 15:33 37.922446 -91.835987 41 32874ft 505kts
15-Mar-18 15:34 38.015917 -91.703693 41 32879ft 505kts
15-Mar-18 15:35 38.109310 -91.570965 41 32879ft 504kts
15-Mar-18 15:36 38.202731 -91.437645 40 32876ft 504kts
15-Mar-18 15:37 38.286260 -91.317964 40 32875ft 503kts
15-Mar-18 15:38 38.379252 -91.184192 40 32874ft 502kts
15-Mar-18 15:39 38.471716 -91.050624 40 32876ft 502kts
15-Mar-18 15:40 38.563878 -90.916927 40 32878ft 502kts
15-Mar-18 15:41 38.656195 -90.782529 40 32879ft 501kts
15-Mar-18 15:42 38.748052 -90.648461 40 32882ft 501kts
15-Mar-18 15:43 38.839837 -90.513239 40 32891ft 502kts
15-Mar-18 15:44 38.934645 -90.384045 35 32890ft 495kts
15-Mar-18 15:45 39.031886 -90.258718 36 32898ft 496kts
15-Mar-18 15:46 39.128832 -90.131944 35 32909ft 495kts
15-Mar-18 15:47 39.214330 -90.020294 36 32912ft 495kts
15-Mar-18 15:48 39.310313 -89.893770 35 32929ft 493kts
15-Mar-18 15:49 39.406422 -89.766466 35 32932ft 494kts
15-Mar-18 15:50 39.502087 -89.639203 35 32938ft 494kts
15-Mar-18 15:51 39.597849 -89.511267 35 32941ft 492kts
15-Mar-18 15:52 39.692993 -89.383622 35 32942ft 492kts
15-Mar-18 15:53 39.787998 -89.255628 35 32944ft 493kts
15-Mar-18 15:54 39.883142 -89.126885 35 32945ft 491kts
15-Mar-18 15:55 39.977630 -88.998494 35 32944ft 491kts
15-Mar-18 15:56 40.071789 -88.869994 34 32942ft 488kts
15-Mar-18 15:57 40.158383 -88.751345 34 32944ft 488kts
15-Mar-18 15:58 40.251755 -88.622876 34 32945ft 488kts
15-Mar-18 15:59 40.345234 -88.493704 34 32948ft 486kts
15-Mar-18 16:00 40.438194 -88.365226 34 32950ft 486kts
15-Mar-18 16:01 40.530807 -88.235721 34 32956ft 487kts
15-Mar-18 16:02 40.622816 -88.103905 37 32955ft 492kts
15-Mar-18 16:03 40.711680 -87.967349 36 32957ft 491kts
15-Mar-18 16:04 40.800775 -87.830914 36 32960ft 489kts
15-Mar-18 16:05 40.889935 -87.695653 36 32963ft 488kts
15-Mar-18 16:06 40.978380 -87.560026 36 32967ft 487kts
15-Mar-18 16:07 41.059399 -87.435094 36 32967ft 488kts
15-Mar-18 16:08 41.147540 -87.298565 36 32970ft 488kts
15-Mar-18 16:09 41.235283 -87.162051 36 32972ft 486kts
15-Mar-18 16:10 41.323127 -87.024744 36 32972ft 486kts
15-Mar-18 16:11 41.410647 -86.887329 36 32973ft 487kts
15-Mar-18 16:12 41.498284 -86.749097 36 32994ft 487kts
15-Mar-18 16:13 41.585711 -86.611054 36 32997ft 487kts
15-Mar-18 16:14 41.672609 -86.472627 37 33002ft 487kts
15-Mar-18 16:15 41.760267 -86.332016 36 33000ft 497kts
15-Mar-18 16:16 41.839066 -86.176916 44 34356ft 503kts
15-Mar-18 16:17 41.906385 -86.033376 44 34974ft 503kts
15-Mar-18 16:18 41.981580 -85.876451 43 34976ft 498kts
15-Mar-18 16:19 42.057010 -85.719674 44 34972ft 500kts
15-Mar-18 16:20 42.119786 -85.587798 44 34971ft 501kts
15-Mar-18 16:21 42.207132 -85.403204 45 34966ft 501kts
15-Mar-18 16:22 42.269405 -85.270893 45 34960ft 502kts
15-Mar-18 16:23 42.356679 -85.084464 46 34954ft 502kts
15-Mar-18 16:24 42.418520 -84.951658 46 34947ft 501kts
15-Mar-18 16:25 42.505172 -84.764561 47 34939ft 502kts
15-Mar-18 16:26 42.566770 -84.630839 47 34937ft 502kts
15-Mar-18 16:27 42.633229 -84.485901 47 34937ft 503kts
15-Mar-18 16:28 42.719327 -84.297059 47 34937ft 503kts
15-Mar-18 16:29 42.780523 -84.162104 48 34935ft 503kts
15-Mar-18 16:30 42.854156 -83.999861 48 34936ft 502kts
15-Mar-18 16:31 42.926822 -83.837157 49 34930ft 503kts
15-Mar-18 16:32 42.992680 -83.667390 59 34930ft 515kts
15-Mar-18 16:33 43.043197 -83.482869 61 34924ft 516kts
15-Mar-18 16:34 43.094980 -83.300349 60 34914ft 515kts
15-Mar-18 16:35 43.147476 -83.118289 61 34906ft 515kts
15-Mar-18 16:36 43.199512 -82.935257 61 34914ft 515kts
15-Mar-18 16:37 43.245298 -82.770990 62 34901ft 514kts
15-Mar-18 16:38 43.280694 -82.578258 75 34902ft 526kts
15-Mar-18 16:39 43.305060 -82.381363 74 34897ft 523kts
15-Mar-18 16:40 43.330017 -82.184841 74 34882ft 523kts
15-Mar-18 16:41 43.354526 -81.987433 75 34864ft 523kts
15-Mar-18 16:42 43.378456 -81.791118 75 34851ft 520kts
15-Mar-18 16:43 43.403361 -81.594740 75 34837ft 521kts
15-Mar-18 16:44 43.427224 -81.398425 75 34825ft 520kts
15-Mar-18 16:45 43.450428 -81.203722 76 34816ft 521kts
15-Mar-18 16:46 43.473563 -81.006480 76 34789ft 520kts
15-Mar-18 16:47 43.494093 -80.828901 76 34778ft 520kts
15-Mar-18 16:48 43.516465 -80.632449 77 34766ft 519kts
15-Mar-18 16:49 43.538523 -80.435661 77 34760ft 518kts
15-Mar-18 16:50 43.560137 -80.239710 78 34760ft 517kts
15-Mar-18 16:51 43.581438 -80.043404 78 34760ft 516kts
15-Mar-18 16:52 43.602321 -79.847758 78 34760ft 515kts
15-Mar-18 16:53 43.623289 -79.652369 79 34761ft 516kts
15-Mar-18 16:54 43.643221 -79.455800 79 34771ft 516kts
15-Mar-18 16:55 43.677536 -79.265543 65 34772ft 510kts
15-Mar-18 16:56 43.733574 -79.085454 63 34751ft 509kts
15-Mar-18 16:57 43.783769 -78.919691 64 34738ft 509kts
15-Mar-18 16:58 43.838769 -78.739596 64 34731ft 508kts
15-Mar-18 16:59 43.893063 -78.558201 65 34723ft 508kts
15-Mar-18 17:00 43.946717 -78.377342 65 34713ft 507kts
15-Mar-18 17:01 44.000001 -78.196419 65 34702ft 507kts
15-Mar-18 17:02 44.053162 -78.014612 66 34695ft 506kts
15-Mar-18 17:03 44.106218 -77.833447 66 34684ft 506kts
15-Mar-18 17:04 44.158525 -77.651008 66 34671ft 506kts
15-Mar-18 17:05 44.213603 -77.470989 59 34670ft 504kts
15-Mar-18 17:06 44.288079 -77.306124 55 34667ft 503kts
15-Mar-18 17:07 44.355451 -77.156569 56 34659ft 503kts
15-Mar-18 17:08 44.429795 -76.990844 56 34652ft 503kts
15-Mar-18 17:09 44.503930 -76.823846 56 34648ft 504kts
15-Mar-18 17:10 44.577470 -76.656788 56 34647ft 504kts
15-Mar-18 17:11 44.651056 -76.489726 57 34640ft 504kts
15-Mar-18 17:12 44.724038 -76.321138 57 34634ft 504kts
15-Mar-18 17:13 44.789749 -76.147333 67 34634ft 505kts
15-Mar-18 17:14 44.835840 -75.959998 69 34632ft 505kts
15-Mar-18 17:15 44.882767 -75.774146 69 34643ft 503kts
15-Mar-18 17:16 44.930790 -75.588938 69 34639ft 503kts
15-Mar-18 17:17 44.974246 -75.417728 69 34633ft 503kts
15-Mar-18 17:18 45.020927 -75.232071 69 34632ft 502kts
15-Mar-18 17:19 45.067693 -75.046305 69 34630ft 502kts
15-Mar-18 17:20 45.113532 -74.859540 70 34626ft 501kts
15-Mar-18 17:21 45.160737 -74.674156 68 34617ft 500kts
15-Mar-18 17:22 45.209978 -74.489452 68 34602ft 499kts
15-Mar-18 17:23 45.258336 -74.305130 68 34586ft 499kts
15-Mar-18 17:24 45.307564 -74.121277 68 34576ft 499kts
15-Mar-18 17:25 45.355987 -73.936034 68 34552ft 498kts
15-Mar-18 17:26 45.403721 -73.751518 68 34549ft 498kts
15-Mar-18 17:27 45.447277 -73.581817 68 34547ft 498kts
15-Mar-18 17:28 45.494423 -73.396704 69 34540ft 498kts
15-Mar-18 17:29 45.541276 -73.211260 69 34539ft 498kts
15-Mar-18 17:30 45.587989 -73.024861 69 34532ft 497kts
15-Mar-18 17:31 45.634256 -72.838729 69 34522ft 498kts
15-Mar-18 17:32 45.680176 -72.652473 69 34510ft 498kts
15-Mar-18 17:33 45.725964 -72.465204 69 34471ft 498kts
15-Mar-18 17:34 45.771321 -72.278148 69 34458ft 498kts
15-Mar-18 17:35 45.816500 -72.090258 69 34442ft 497kts
15-Mar-18 17:36 45.861193 -71.902810 69 34439ft 497kts
15-Mar-18 17:37 45.901646 -71.731763 69 34436ft 497kts
15-Mar-18 17:38 45.945791 -71.543568 70 34427ft 497kts
15-Mar-18 17:39 45.989784 -71.354401 70 34402ft 498kts
15-Mar-18 17:40 46.033362 -71.165378 70 34392ft 498kts
15-Mar-18 17:41 46.076755 -70.975501 70 34363ft 498kts
15-Mar-18 17:42 46.119708 -70.785886 70 34351ft 499kts
15-Mar-18 17:43 46.162976 -70.595483 70 34338ft 499kts
15-Mar-18 17:44 46.205001 -70.404991 70 34324ft 499kts
15-Mar-18 17:45 46.246699 -70.213959 71 34310ft 499kts
15-Mar-18 17:46 46.287243 -70.021531 71 34297ft 499kts
15-Mar-18 17:47 46.324013 -69.845196 71 34287ft 500kts
15-Mar-18 17:48 46.365011 -69.652562 71 34277ft 499kts
15-Mar-18 17:49 46.405167 -69.460081 71 34271ft 500kts
15-Mar-18 17:50 46.444846 -69.267021 71 34270ft 501kts
15-Mar-18 17:51 46.484355 -69.072826 71 34268ft 501kts
15-Mar-18 17:52 46.523481 -68.878622 72 34264ft 502kts
15-Mar-18 17:53 46.562301 -68.684016 72 34256ft 502kts
15-Mar-18 17:54 46.600916 -68.488493 72 34242ft 503kts
15-Mar-18 17:55 46.639182 -68.292784 72 34233ft 504kts
15-Mar-18 17:56 46.677722 -68.096356 72 34226ft 504kts
15-Mar-18 17:57 46.711638 -67.917541 72 34224ft 505kts
15-Mar-18 17:58 46.748949 -67.720133 72 34210ft 506kts
15-Mar-18 17:59 46.786035 -67.521598 73 34206ft 506kts
15-Mar-18 18:00 46.823673 -67.323860 73 34212ft 507kts
15-Mar-18 18:01 46.860126 -67.124135 73 34208ft 508kts
15-Mar-18 18:02 46.881867 -66.920164 85 34182ft 511kts
15-Mar-18 18:03 46.887035 -66.712502 86 34175ft 512kts
15-Mar-18 18:04 46.893884 -66.503635 85 34167ft 513kts
15-Mar-18 18:05 46.902112 -66.295374 85 34160ft 514kts
15-Mar-18 18:06 46.909205 -66.086882 86 34152ft 514kts
15-Mar-18 18:07 46.915392 -65.892165 86 34139ft 517kts
15-Mar-18 18:08 46.921688 -65.681392 86 34125ft 518kts
15-Mar-18 18:09 46.927601 -65.470509 87 34124ft 518kts
15-Mar-18 18:10 46.933114 -65.260148 87 34125ft 518kts
15-Mar-18 18:11 46.938243 -65.049685 87 34128ft 518kts
15-Mar-18 18:12 46.943005 -64.838283 87 34129ft 519kts
15-Mar-18 18:13 46.947371 -64.627182 88 34128ft 520kts
15-Mar-18 18:14 46.951362 -64.415321 88 34137ft 520kts
15-Mar-18 18:15 46.954958 -64.203708 88 34151ft 521kts
15-Mar-18 18:16 46.958164 -63.992098 88 34152ft 521kts
15-Mar-18 18:17 46.960809 -63.794408 89 34149ft 522kts
15-Mar-18 18:18 46.963265 -63.582038 89 34148ft 522kts
15-Mar-18 18:19 46.965338 -63.369068 90 34148ft 522kts
15-Mar-18 18:20 46.967009 -63.156749 90 34146ft 522kts
15-Mar-18 18:21 46.968288 -62.944562 90 34146ft 522kts
15-Mar-18 18:22 46.969177 -62.731527 90 34143ft 522kts
15-Mar-18 18:23 46.969671 -62.519264 91 34138ft 522kts
15-Mar-18 18:24 46.969772 -62.306753 91 34133ft 523kts
15-Mar-18 18:25 46.969478 -62.093466 91 34128ft 522kts
15-Mar-18 18:26 46.968798 -61.881018 92 34125ft 523kts
15-Mar-18 18:27 46.967875 -61.696214 92 34127ft 522kts
15-Mar-18 18:28 46.966454 -61.483776 92 34129ft 522kts
15-Mar-18 18:29 46.964971 -61.306946 92 34140ft 522kts
15-Mar-18 18:30 46.962826 -61.094212 92 34151ft 522kts
15-Mar-18 18:31 46.960292 -60.882185 93 34161ft 521kts
15-Mar-18 18:32 46.957369 -60.669738 93 34171ft 521kts
15-Mar-18 18:33 46.954057 -60.457806 93 34180ft 521kts
15-Mar-18 18:34 46.950359 -60.246232 93 34187ft 521kts
15-Mar-18 18:35 46.946254 -60.033787 94 34191ft 521kts
15-Mar-18 18:36 46.941781 -59.822338 94 34196ft 520kts
15-Mar-18 18:37 46.937467 -59.634211 94 34199ft 520kts
15-Mar-18 18:38 46.932257 -59.422964 95 34201ft 520kts
15-Mar-18 18:39 46.926661 -59.211772 95 34203ft 520kts
15-Mar-18 18:40 46.920655 -58.999940 95 34205ft 520kts
15-Mar-18 18:41 46.914280 -58.788951 95 34208ft 520kts
15-Mar-18 18:42 46.912356 -58.727544 96 34209ft 520kts
15-Mar-18 18:43 46.907133 -58.566170 96 34213ft 520kts
15-Mar-18 18:44 46.899962 -58.355311 96 34228ft 520kts
15-Mar-18 18:45 46.892383 -58.143729 97 34235ft 520kts
15-Mar-18 18:46 46.884452 -57.932905 97 34243ft 520kts
15-Mar-18 18:47 46.877100 -57.746750 97 34251ft 520kts
15-Mar-18 18:48 46.868396 -57.535366 98 34262ft 520kts
15-Mar-18 18:49 46.859331 -57.324661 98 34279ft 520kts
15-Mar-18 18:50 46.849884 -57.114129 98 34290ft 520kts
15-Mar-18 18:51 46.840055 -56.903722 99 34299ft 519kts
15-Mar-18 18:52 46.829807 -56.692758 99 34308ft 520kts
15-Mar-18 18:53 46.819191 -56.482250 99 34312ft 520kts
15-Mar-18 18:54 46.808194 -56.271875 99 34313ft 520kts
15-Mar-18 18:55 46.796772 -56.060929 100 34314ft 520kts
15-Mar-18 18:56 46.785012 -55.850793 100 34313ft 519kts
15-Mar-18 18:57 46.774100 -55.661963 100 34312ft 519kts
15-Mar-18 18:58 46.761624 -55.452338 101 34311ft 519kts
15-Mar-18 18:59 46.748792 -55.243253 101 34309ft 518kts
15-Mar-18 19:00 46.735531 -55.033500 101 34312ft 518kts
15-Mar-18 19:01 46.721960 -54.824937 102 34313ft 518kts
15-Mar-18 19:02 46.708000 -54.616333 102 34313ft 518kts
15-Mar-18 19:03 46.693660 -54.407859 103 34313ft 518kts
15-Mar-18 19:04 46.678878 -54.198586 103 34314ft 518kts
15-Mar-18 19:05 46.663790 -53.990445 103 34315ft 518kts
15-Mar-18 19:06 46.648306 -53.782148 104 34316ft 518kts
15-Mar-18 19:07 46.633690 -53.590180 104 34310ft 518kts
15-Mar-18 19:08 46.617488 -53.382222 104 34311ft 518kts
15-Mar-18 19:09 46.600923 -53.174553 104 34312ft 518kts
15-Mar-18 19:10 46.583925 -52.966310 105 34313ft 517kts
15-Mar-18 19:11 46.566618 -52.758999 105 34341ft 518kts
15-Mar-18 19:12 46.548888 -52.551226 105 34321ft 519kts
15-Mar-18 19:13 46.531209 -52.342402 106 34367ft 520kts
15-Mar-18 19:14 46.512310 -52.134385 106 34369ft 520kts
15-Mar-18 19:15 46.513680 -51.921134 80 34369ft 556kts
15-Mar-18 19:16 46.573727 -51.711216 73 34370ft 560kts
15-Mar-18 19:17 46.622971 -51.520777 75 34370ft 559kts
15-Mar-18 19:18 46.677654 -51.309017 75 34371ft 560kts
15-Mar-18 19:19 46.731534 -51.095637 76 34371ft 560kts
15-Mar-18 19:20 46.784825 -50.882357 76 34372ft 561kts
15-Mar-18 19:21 46.837781 -50.668391 76 34373ft 561kts
15-Mar-18 19:22 46.890521 -50.453272 76 34374ft 561kts
15-Mar-18 19:23 46.943062 -50.238465 77 34374ft 561kts
15-Mar-18 19:24 46.994491 -50.023107 77 34375ft 561kts
15-Mar-18 19:25 47.030304 -49.803116 87 34378ft 552kts
15-Mar-18 19:26 47.059441 -49.581799 86 34379ft 554kts
15-Mar-18 19:27 47.088107 -49.380571 85 34381ft 555kts
15-Mar-18 19:28 47.119446 -49.158658 86 34383ft 554kts
15-Mar-18 19:29 47.149890 -48.936870 86 34386ft 555kts
15-Mar-18 19:30 47.179908 -48.714521 86 34388ft 555kts
15-Mar-18 19:31 47.209560 -48.491392 86 34391ft 555kts
15-Mar-18 19:32 47.238705 -48.268581 86 34394ft 556kts
15-Mar-18 19:33 47.267419 -48.045525 87 34397ft 554kts
15-Mar-18 19:34 47.295748 -47.821826 87 34401ft 557kts
15-Mar-18 19:35 47.323708 -47.597358 87 34404ft 558kts
15-Mar-18 19:36 47.351250 -47.372476 87 34409ft 559kts
15-Mar-18 19:37 47.376099 -47.166233 87 34412ft 561kts
15-Mar-18 19:38 47.403003 -46.939155 87 34416ft 564kts
15-Mar-18 19:39 47.429567 -46.710909 87 34420ft 566kts
15-Mar-18 19:40 47.455837 -46.481033 87 34424ft 567kts
15-Mar-18 19:41 47.481617 -46.251178 87 34429ft 568kts
15-Mar-18 19:42 47.507041 -46.020193 88 34434ft 568kts
15-Mar-18 19:43 47.531965 -45.789254 87 34439ft 571kts
15-Mar-18 19:44 47.556503 -45.557377 88 34445ft 571kts
15-Mar-18 19:45 47.580722 -45.323929 88 35070ft 570kts
15-Mar-18 19:46 47.604163 -45.093035 88 36252ft 566kts
15-Mar-18 19:47 47.625013 -44.883767 88 36440ft 566kts
15-Mar-18 19:48 47.647657 -44.651791 88 36442ft 568kts
15-Mar-18 19:49 47.669812 -44.419803 88 36447ft 569kts
15-Mar-18 19:50 47.691490 -44.187714 88 36453ft 569kts
15-Mar-18 19:51 47.712797 -43.954334 88 36458ft 569kts
15-Mar-18 19:52 47.733598 -43.721195 88 36464ft 571kts
15-Mar-18 19:53 47.753937 -43.487703 88 36469ft 571kts
15-Mar-18 19:54 47.773934 -43.252451 88 36476ft 574kts
15-Mar-18 19:55 47.793490 -43.016548 88 36481ft 577kts
15-Mar-18 19:56 47.812671 -42.779107 87 36488ft 578kts
15-Mar-18 19:57 47.829770 -42.562020 87 36493ft 580kts
15-Mar-18 19:58 47.848048 -42.323816 87 36500ft 580kts
15-Mar-18 19:59 47.865920 -42.084253 87 36506ft 581kts
15-Mar-18 20:00 47.883224 -41.845497 88 36513ft 580kts
15-Mar-18 20:01 47.900033 -41.606553 88 36519ft 581kts
15-Mar-18 20:02 47.916457 -41.365844 88 36526ft 583kts
15-Mar-18 20:03 47.927175 -41.204562 88 36531ft 585kts
15-Mar-18 20:04 47.927175 -41.204562 88 36531ft 585kts
15-Mar-18 20:05 47.927175 -41.204562 88 36531ft 585kts
15-Mar-18 20:06 47.927175 -41.204562 88 36531ft 585kts
15-Mar-18 20:07 47.927175 -41.204562 88 36531ft 585kts
15-Mar-18 20:17 47.927175 -41.204562 88 36531ft 585kts
15-Mar-18 20:18 47.927175 -41.204562 88 36531ft 585kts
15-Mar-18 20:19 47.927175 -41.204562 88 36531ft 585kts
15-Mar-18 20:20 47.927175 -41.204562 88 36531ft 585kts
15-Mar-18 20:21 47.927175 -41.204562 88 36531ft 585kts
15-Mar-18 20:22 47.927175 -41.204562 88 36531ft 585kts
15-Mar-18 20:23 47.927175 -41.204562 88 36531ft 585kts
15-Mar-18 20:24 47.927175 -41.204562 88 36531ft 585kts
15-Mar-18 20:25 47.927175 -41.204562 88 36531ft 585kts
15-Mar-18 20:26 47.927175 -41.204562 88 36531ft 585kts
15-Mar-18 20:27 47.927175 -41.204562 88 36531ft 585kts
15-Mar-18 20:28 47.927175 -41.204562 88 36531ft 585kts
15-Mar-18 20:29 47.927175 -41.204562 88 36531ft 585kts
15-Mar-18 20:30 47.927175 -41.204562 88 36531ft 585kts
15-Mar-18 20:31 47.927175 -41.204562 88 36531ft 585kts
15-Mar-18 20:32 47.927175 -41.204562 88 36531ft 585kts
15-Mar-18 20:33 47.927175 -41.204562 88 36531ft 585kts
15-Mar-18 20:34 47.927175 -41.204562 88 36531ft 585kts
15-Mar-18 20:35 47.927175 -41.204562 88 36531ft 585kts
15-Mar-18 20:36 47.927175 -41.204562 88 36531ft 585kts
15-Mar-18 20:37 47.927175 -41.204562 88 36531ft 585kts
15-Mar-18 20:38 47.927175 -41.204562 88 36531ft 585kts
15-Mar-18 20:39 47.927175 -41.204562 88 36531ft 585kts
15-Mar-18 20:40 47.927175 -41.204562 88 36531ft 585kts
15-Mar-18 20:41 47.927175 -41.204562 88 36531ft 585kts
15-Mar-18 20:42 47.927175 -41.204562 88 36531ft 585kts
15-Mar-18 20:43 47.927175 -41.204562 88 36531ft 585kts
15-Mar-18 20:44 47.927175 -41.204562 88 36531ft 585kts
15-Mar-18 20:45 47.927175 -41.204562 88 36531ft 585kts
15-Mar-18 20:46 47.927175 -41.204562 88 36531ft 585kts
15-Mar-18 20:47 47.927175 -41.204562 88 36531ft 585kts
15-Mar-18 20:48 47.927175 -41.204562 88 36531ft 585kts
15-Mar-18 20:49 47.927175 -41.204562 88 36531ft 585kts
15-Mar-18 20:50 47.927175 -41.204562 88 36531ft 585kts
15-Mar-18 20:51 47.927175 -41.204562 88 36531ft 585kts
15-Mar-18 20:52 47.927175 -41.204562 88 36531ft 585kts
15-Mar-18 20:53 47.927175 -41.204562 88 36531ft 585kts
15-Mar-18 20:54 47.927175 -41.204562 88 36531ft 585kts
15-Mar-18 20:55 47.927175 -41.204562 88 36531ft 585kts
15-Mar-18 20:56 47.927175 -41.204562 88 36531ft 585kts
15-Mar-18 20:57 47.927175 -41.204562 88 36531ft 585kts
15-Mar-18 20:58 47.927175 -41.204562 88 36531ft 585kts
15-Mar-18 20:59 47.927175 -41.204562 88 36531ft 585kts
15-Mar-18 21:00 47.927175 -41.204562 88 36531ft 585kts
15-Mar-18 21:01 47.927175 -41.204562 88 36531ft 585kts
15-Mar-18 21:02 47.927175 -41.204562 88 36531ft 585kts
15-Mar-18 21:03 47.927175 -41.204562 88 36531ft 585kts
15-Mar-18 21:04 47.927175 -41.204562 88 36531ft 585kts
15-Mar-18 21:05 47.927175 -41.204562 88 36531ft 585kts
15-Mar-18 21:06 47.927175 -41.204562 88 36531ft 585kts
15-Mar-18 21:07 47.927175 -41.204562 88 36531ft 585kts
15-Mar-18 21:08 47.927175 -41.204562 88 36531ft 585kts
15-Mar-18 21:09 47.927175 -41.204562 88 36531ft 585kts
15-Mar-18 21:10 47.927175 -41.204562 88 36531ft 585kts
15-Mar-18 21:11 47.927175 -41.204562 88 36531ft 585kts
15-Mar-18 21:12 47.927175 -41.204562 88 36531ft 585kts
15-Mar-18 21:13 47.927175 -41.204562 88 36531ft 585kts
15-Mar-18 21:14 47.927175 -41.204562 88 36531ft 585kts
15-Mar-18 21:15 47.927175 -41.204562 88 36531ft 585kts
15-Mar-18 21:16 47.927175 -41.204562 88 36531ft 585kts
15-Mar-18 21:17 47.927175 -41.204562 88 36531ft 585kts
15-Mar-18 21:18 47.927175 -41.204562 88 36531ft 585kts
15-Mar-18 21:19 47.927175 -41.204562 88 36531ft 585kts
15-Mar-18 21:20 47.927175 -41.204562 88 36531ft 585kts
15-Mar-18 21:21 47.927175 -41.204562 88 36531ft 585kts
15-Mar-18 21:22 47.927175 -41.204562 88 36531ft 585kts
15-Mar-18 21:23 47.927175 -41.204562 88 36531ft 585kts
15-Mar-18 21:24 47.927175 -41.204562 88 36531ft 585kts
15-Mar-18 21:25 47.927175 -41.204562 88 36531ft 585kts
15-Mar-18 21:26 47.927175 -41.204562 88 36531ft 585kts
15-Mar-18 21:27 47.927175 -41.204562 88 36531ft 585kts
15-Mar-18 21:28 47.927175 -41.204562 88 36531ft 585kts
15-Mar-18 21:29 47.927175 -41.204562 88 36531ft 585kts
15-Mar-18 21:30 47.927175 -41.204562 88 36531ft 585kts
15-Mar-18 21:31 47.927175 -41.204562 88 36531ft 585kts
15-Mar-18 21:32 47.927175 -41.204562 88 36531ft 585kts
15-Mar-18 21:33 47.927175 -41.204562 88 36531ft 585kts
15-Mar-18 21:34 47.927175 -41.204562 88 36531ft 585kts
15-Mar-18 21:36 51.106598 -25.108582 66 36921ft 509kts
15-Mar-18 21:37 51.149255 -24.894518 66 36804ft 507kts
15-Mar-18 21:38 51.188336 -24.696308 67 36802ft 507kts
15-Mar-18 21:39 51.230204 -24.481670 67 36778ft 507kts
15-Mar-18 21:40 51.271641 -24.266838 67 36774ft 507kts
15-Mar-18 21:41 51.312753 -24.051254 67 36771ft 506kts
15-Mar-18 21:42 51.353274 -23.836343 68 36769ft 504kts
15-Mar-18 21:43 51.393440 -23.620808 68 36761ft 504kts
15-Mar-18 21:44 51.433110 -23.405461 68 36672ft 504kts
15-Mar-18 21:45 51.472374 -23.189810 69 36663ft 504kts
15-Mar-18 21:46 51.511377 -22.973023 69 36661ft 504kts
15-Mar-18 21:47 51.549797 -22.756903 69 36501ft 503kts
15-Mar-18 21:48 51.584388 -22.560059 69 36494ft 502kts
15-Mar-18 21:49 51.622019 -22.343420 70 36509ft 501kts
15-Mar-18 21:50 51.659036 -22.127678 71 36505ft 500kts
15-Mar-18 21:51 51.695715 -21.911241 71 36500ft 499kts
15-Mar-18 21:52 51.731810 -21.695572 71 36496ft 499kts
15-Mar-18 21:53 51.767556 -21.479278 71 36492ft 500kts
15-Mar-18 21:54 51.803045 -21.261777 71 36488ft 500kts
15-Mar-18 21:55 51.837978 -21.044906 72 36456ft 499kts
15-Mar-18 21:56 51.872589 -20.827226 72 36308ft 497kts
15-Mar-18 21:57 51.906571 -20.610658 72 36301ft 496kts
15-Mar-18 21:58 51.937727 -20.413377 73 36297ft 495kts
15-Mar-18 21:59 51.970584 -20.196585 73 36286ft 494kts
15-Mar-18 22:00 52.000687 -19.979637 80 36287ft 495kts
15-Mar-18 22:01 52.006002 -19.755911 87 36281ft 497kts
15-Mar-18 22:02 52.008002 -19.531067 86 36275ft 496kts
15-Mar-18 22:03 52.009332 -19.427881 86 36273ft 496kts
15-Mar-18 22:04 52.013346 -19.236310 86 36268ft 495kts
15-Mar-18 22:05 52.016665 -19.013317 86 36263ft 494kts
15-Mar-18 22:06 52.019336 -18.790652 87 36258ft 493kts
15-Mar-18 22:07 52.020339 -18.695465 87 36255ft 493kts
15-Mar-18 22:08 52.022229 -18.491538 87 36251ft 493kts
15-Mar-18 22:09 52.023887 -18.269111 87 36245ft 493kts
15-Mar-18 22:10 52.025130 -18.045930 87 36240ft 493kts
15-Mar-18 22:11 52.025949 -17.823500 87 36235ft 493kts
15-Mar-18 22:12 52.026350 -17.600263 88 36230ft 493kts
15-Mar-18 22:13 52.026331 -17.378257 88 36225ft 492kts
15-Mar-18 22:14 52.025897 -17.156677 88 36220ft 491kts
15-Mar-18 22:15 52.025044 -16.934732 89 36215ft 490kts
15-Mar-18 22:16 52.023784 -16.714113 89 36210ft 489kts
15-Mar-18 22:17 52.022112 -16.493669 89 36206ft 489kts
15-Mar-18 22:18 52.020271 -16.296559 90 36202ft 489kts
15-Mar-18 22:19 52.017814 -16.075428 90 36197ft 489kts
15-Mar-18 22:20 52.014954 -15.855059 90 36191ft 489kts
15-Mar-18 22:21 52.011676 -15.634098 90 36186ft 488kts
15-Mar-18 22:22 52.008628 -15.414109 90 36182ft 488kts
15-Mar-18 22:23 52.004181 -15.193882 91 36205ft 486kts
15-Mar-18 22:24 51.999633 -14.975522 90 36281ft 484kts
15-Mar-18 22:25 52.000303 -14.756911 88 36280ft 486kts
15-Mar-18 22:26 52.000515 -14.538416 88 36277ft 482kts
15-Mar-18 22:27 52.001146 -14.320900 89 36296ft 483kts
15-Mar-18 22:28 52.000524 -14.141182 89 36294ft 483kts
15-Mar-18 22:29 52.000006 -13.922725 89 36291ft 483kts
15-Mar-18 22:30 51.999648 -13.705098 89 36289ft 483kts
15-Mar-18 22:31 51.998685 -13.486624 89 36287ft 483kts
15-Mar-18 22:32 51.998889 -13.268754 89 36285ft 483kts
15-Mar-18 22:33 51.998208 -13.050778 90 36283ft 483kts
15-Mar-18 22:34 51.996797 -12.832332 90 36281ft 483kts
15-Mar-18 22:35 51.994945 -12.614579 90 36277ft 483kts
15-Mar-18 22:36 51.992693 -12.397399 90 36275ft 481kts
15-Mar-18 22:37 51.990036 -12.179929 91 36273ft 480kts
15-Mar-18 22:38 51.987302 -11.984148 91 36272ft 480kts
15-Mar-18 22:39 51.983888 -11.766968 91 36271ft 480kts
15-Mar-18 22:40 51.980090 -11.550673 91 36269ft 480kts
15-Mar-18 22:41 51.975895 -11.334326 91 36268ft 481kts
15-Mar-18 22:42 51.971277 -11.116835 92 36267ft 481kts
15-Mar-18 22:43 51.966285 -10.900510 92 36265ft 481kts
15-Mar-18 22:44 51.960932 -10.685583 92 36264ft 480kts
15-Mar-18 22:45 51.955104 -10.467678 92 36263ft 479kts
15-Mar-18 22:46 51.948945 -10.252249 92 36261ft 479kts
15-Mar-18 22:47 51.942408 -10.037319 93 36260ft 478kts
15-Mar-18 22:48 51.936071 -9.840377 93 36259ft 478kts
15-Mar-18 22:49 51.928787 -9.625672 93 36259ft 478kts
15-Mar-18 22:50 51.921083 -9.410227 93 36264ft 478kts
15-Mar-18 22:51 51.913011 -9.195512 93 36269ft 478kts
15-Mar-18 22:52 51.904545 -8.980799 94 36277ft 478kts
15-Mar-18 22:53 51.895666 -8.765600 94 36277ft 478kts
15-Mar-18 22:54 51.886425 -8.551187 94 36284ft 477kts
15-Mar-18 22:55 51.876821 -8.337459 94 36284ft 477kts
15-Mar-18 22:56 51.866808 -8.123304 94 36278ft 475kts
15-Mar-18 22:57 51.856456 -7.910272 94 36262ft 476kts
15-Mar-18 22:58 51.848666 -7.755005 95 36242ft 476kts
15-Mar-18 22:59 51.835727 -7.505722 95 36212ft 476kts
15-Mar-18 23:00 51.824291 -7.293484 95 36195ft 476kts
15-Mar-18 23:01 51.812401 -7.079746 95 36186ft 476kts
15-Mar-18 23:02 51.800643 -6.866759 96 36178ft 476kts
15-Mar-18 23:03 51.787555 -6.653380 96 36182ft 475kts
15-Mar-18 23:04 51.777922 -6.476382 94 36187ft 475kts
15-Mar-18 23:05 51.767985 -6.228573 94 36196ft 474kts
15-Mar-18 23:06 51.760186 -6.051303 94 36206ft 473kts
15-Mar-18 23:07 51.751703 -5.839454 94 36262ft 473kts
15-Mar-18 23:08 51.743498 -5.643782 95 36285ft 474kts
15-Mar-18 23:09 51.732983 -5.431049 95 36331ft 475kts
15-Mar-18 23:10 51.722353 -5.218800 95 36358ft 475kts
15-Mar-18 23:11 51.711116 -5.006414 95 36385ft 476kts
15-Mar-18 23:12 51.699431 -4.793438 96 36402ft 475kts
15-Mar-18 23:13 51.688661 -4.581462 95 36403ft 475kts
15-Mar-18 23:14 51.676894 -4.369233 96 36403ft 474kts
15-Mar-18 23:15 51.665259 -4.158043 96 36403ft 474kts
15-Mar-18 23:16 51.652209 -3.947382 97 36402ft 473kts
15-Mar-18 23:17 51.639413 -3.736094 96 36401ft 473kts
15-Mar-18 23:18 51.627072 -3.540671 97 36396ft 473kts
15-Mar-18 23:19 51.613017 -3.329323 97 36410ft 475kts
15-Mar-18 23:20 51.589756 -3.121206 104 36419ft 473kts
15-Mar-18 23:21 51.560393 -2.914842 103 36417ft 474kts
15-Mar-18 23:22 51.532133 -2.707622 103 34996ft 473kts
15-Mar-18 23:23 51.505438 -2.504272 103 32034ft 469kts
15-Mar-18 23:24 51.477073 -2.300836 104 28738ft 449kts
15-Mar-18 23:25 51.450445 -2.114203 104 24776ft 416kts
15-Mar-18 23:26 51.425834 -1.936734 104 20484ft 399kts
15-Mar-18 23:27 51.401205 -1.766560 105 16107ft 385kts
15-Mar-18 23:28 51.379580 -1.618524 105 13892ft 339kts
15-Mar-18 23:29 51.360210 -1.484251 106 13527ft 288kts
15-Mar-18 23:30 51.341327 -1.357885 106 12964ft 294kts
15-Mar-18 23:31 51.322201 -1.231346 106 11665ft 291kts
15-Mar-18 23:32 51.312471 -1.103492 93 10520ft 289kts
15-Mar-18 23:33 51.311581 -0.975787 93 9430ft 290kts
15-Mar-18 23:34 51.310093 -0.848065 93 8414ft 283kts
15-Mar-18 23:35 51.308822 -0.725031 92 7416ft 274kts
15-Mar-18 23:36 51.307344 -0.605178 93 6493ft 262kts
15-Mar-18 23:37 51.305718 -0.493121 93 6476ft 245kts
15-Mar-18 23:38 51.313670 -0.392896 74 6479ft 248kts
15-Mar-18 23:39 51.332091 -0.290424 75 6503ft 241kts
15-Mar-18 23:40 51.351626 -0.184787 73 5759ft 251kts
15-Mar-18 23:41 51.387957 -0.103505 11 5014ft 227kts
15-Mar-18 23:42 51.449211 -0.102644 334 4230ft 203kts
15-Mar-18 23:43 51.466370 -0.171592 266 3406ft 167kts
15-Mar-18 23:44 51.465616 -0.241387 265 2411ft 143kts
15-Mar-18 23:45 51.465535 -0.261246 265 2208ft 139kts
15-Mar-18 23:46 51.465407 -0.298119 266 1742ft 144kts
15-Mar-18 23:47 51.465194 -0.363299 266 961ft 145kts
15-Mar-18 23:48 51.465045 -0.421371 266 275ft 144kts
15-Mar-18 23:49 51.464874 -0.461549 269 96ft 14kts
15-Mar-18 23:50 51.466766 -0.468689 5 96ft 0kts
15-Mar-18 23:51 51.470432 -0.468652 358 96ft 21kts
15-Mar-18 23:52 51.475090 -0.467274 80 96ft 17kts
15-Mar-18 23:53 51.474476 -0.461440 163 96ft 0kts
15-Mar-18 23:54 51.473959 -0.462401 234 96ft 0kts
15-Mar-18 23:55 51.473964 -0.462390 234 96ft 0kts
15-Mar-18 23:56 51.473964 -0.462390 234 96ft 0kts
15-Mar-18 23:57 51.473964 -0.462390 234 96ft 0kts
15-Mar-18 23:58 51.473964 -0.462390 234 96ft 0kts
15-Mar-18 23:59 51.473964 -0.462390 234 96ft 0kts
16-Mar-18 00:00 51.473964 -0.462390 234 96ft 0kts
16-Mar-18 00:01 51.473964 -0.462390 234 96ft 0kts
16-Mar-18 00:02 51.473964 -0.462390 234 96ft 0kts
16-Mar-18 00:03 51.473964 -0.462390 234 96ft 0kts

Navigation Log

Ident Type
Flight plan parsing failed, navigation log unavailable